Time;durP1;ratioP1;P1;durP2;ratioP2;P2;SDS_P1;SDS_P2;PMS_P1;PMS_P2;Temp;Humidity;BMP_temperature;BMP_pressure;BME280_temperature;BME280_humidity;BME280_pressure;Samples;Min_cycle;Max_cycle;Signal;HPM_P1;HPM_P2
2021/12/31 00:02:05;;;;;;;3.20;1.27;;;14.30;99.90;;;;;;4850610;29;20045;-78
2021/12/31 00:04:36;;;;;;;2.42;0.93;;;14.30;99.90;;;;;;4851024;29;20135;-78
2021/12/31 00:07:05;;;;;;;2.72;1.13;;;14.30;99.90;;;;;;4850400;29;20129;-78
2021/12/31 00:09:34;;;;;;;3.15;1.08;;;14.40;99.90;;;;;;4834686;29;20080;-78
2021/12/31 00:12:07;;;;;;;3.60;0.90;;;14.40;99.90;;;;;;4840864;29;20069;-78
2021/12/31 00:14:38;;;;;;;4.57;1.20;;;14.50;99.90;;;;;;4836721;29;20606;-78
2021/12/31 00:17:07;;;;;;;2.67;1.10;;;14.40;99.90;;;;;;4832720;29;20054;-78
2021/12/31 00:19:41;;;;;;;3.05;1.20;;;14.40;99.90;;;;;;4843896;29;20140;-78
2021/12/31 00:22:40;;;;;;;2.67;1.15;;;14.40;99.90;;;;;;4835308;29;20050;-79
2021/12/31 00:25:11;;;;;;;2.25;0.73;;;14.40;99.90;;;;;;4836499;29;20054;-79
2021/12/31 00:27:40;;;;;;;2.17;0.87;;;14.40;99.90;;;;;;4835249;29;20049;-79
2021/12/31 00:30:13;;;;;;;2.55;0.90;;;14.40;99.90;;;;;;4842369;29;20061;-79
2021/12/31 00:32:43;;;;;;;3.20;1.02;;;14.40;99.90;;;;;;4836756;29;20090;-79
2021/12/31 00:35:15;;;;;;;4.60;1.00;;;14.50;99.90;;;;;;4839658;29;20129;-78
2021/12/31 00:37:43;;;;;;;2.88;1.13;;;14.40;99.90;;;;;;4829269;29;20089;-78
2021/12/31 00:40:17;;;;;;;2.83;0.73;;;14.50;99.90;;;;;;4835104;29;20187;-78
2021/12/31 00:42:46;;;;;;;2.83;1.00;;;14.50;99.90;;;;;;4832292;29;20080;-78
2021/12/31 00:45:17;;;;;;;2.30;1.00;;;14.50;99.90;;;;;;4837682;29;20079;-78
2021/12/31 00:47:46;;;;;;;3.63;1.00;;;14.50;99.90;;;;;;4837360;29;20088;-79
2021/12/31 00:50:18;;;;;;;2.13;0.80;;;14.40;99.90;;;;;;4840915;29;20738;-79
2021/12/31 00:52:49;;;;;;;1.80;0.80;;;14.40;99.90;;;;;;4838634;29;20073;-78
2021/12/31 00:55:20;;;;;;;2.60;0.90;;;14.30;99.90;;;;;;4845615;29;20064;-79
2021/12/31 00:58:15;;;;;;;2.60;0.77;;;14.30;99.90;;;;;;4848315;29;20257;-79
2021/12/31 01:00:44;;;;;;;2.72;0.85;;;14.20;99.90;;;;;;4840067;29;20054;-78
2021/12/31 01:03:13;;;;;;;2.92;0.95;;;14.30;99.90;;;;;;4843219;29;20049;-79
2021/12/31 01:05:43;;;;;;;2.07;0.80;;;14.30;99.90;;;;;;4844574;29;20049;-79
2021/12/31 01:08:12;;;;;;;2.60;0.77;;;14.30;99.90;;;;;;4869493;29;20060;-79
2021/12/31 01:10:40;;;;;;;4.50;1.10;;;14.30;99.90;;;;;;4859886;29;20071;-79
2021/12/31 01:13:14;;;;;;;2.70;0.90;;;14.40;99.90;;;;;;4859879;29;20083;-79
2021/12/31 01:15:46;;;;;;;2.50;0.93;;;14.40;99.90;;;;;;4871230;29;20089;-79
2021/12/31 01:18:27;;;;;;;3.40;0.90;;;14.50;99.90;;;;;;4881362;29;20053;-79
2021/12/31 01:20:57;;;;;;;2.83;0.80;;;14.40;99.90;;;;;;4865397;29;20065;-79
2021/12/31 01:23:27;;;;;;;2.22;0.80;;;14.40;99.90;;;;;;4887318;29;20146;-80
2021/12/31 01:25:56;;;;;;;3.40;0.50;;;14.40;99.90;;;;;;4878951;29;20048;-79
2021/12/31 01:28:25;;;;;;;2.20;0.68;;;14.40;99.90;;;;;;4892938;29;20061;-80
2021/12/31 01:30:55;;;;;;;2.77;0.77;;;14.40;99.90;;;;;;4865400;29;20064;-79
2021/12/31 01:33:24;;;;;;;4.90;0.60;;;14.30;99.90;;;;;;4873285;29;20144;-79
2021/12/31 01:35:53;;;;;;;5.07;0.68;;;14.40;99.90;;;;;;4864607;29;20128;-79
2021/12/31 01:38:23;;;;;;;2.15;0.60;;;14.40;99.90;;;;;;4857383;29;20147;-79
2021/12/31 01:40:53;;;;;;;2.08;0.70;;;14.50;99.90;;;;;;4868354;29;20049;-79
2021/12/31 01:43:22;;;;;;;2.30;0.90;;;14.50;99.90;;;;;;4887330;29;20086;-80
2021/12/31 01:45:55;;;;;;;1.80;0.50;;;14.50;99.90;;;;;;4872438;29;20133;-79
2021/12/31 01:48:26;;;;;;;3.38;0.60;;;14.50;99.90;;;;;;4861937;29;20053;-80
2021/12/31 01:50:56;;;;;;;2.10;0.70;;;14.60;99.90;;;;;;4876029;29;20049;-79
2021/12/31 01:53:26;;;;;;;3.33;1.00;;;14.50;99.90;;;;;;4863736;29;20050;-79
2021/12/31 01:55:58;;;;;;;2.00;0.73;;;14.50;99.90;;;;;;4884264;29;20081;-79
2021/12/31 01:58:29;;;;;;;5.00;0.80;;;14.60;99.90;;;;;;4862883;29;20088;-79
2021/12/31 02:01:03;;;;;;;2.58;0.88;;;14.50;99.90;;;;;;4858237;29;20131;-79
2021/12/31 02:03:35;;;;;;;2.65;1.00;;;14.50;99.90;;;;;;4855950;29;20057;-79
2021/12/31 02:09:02;;;;;;;2.67;0.70;;;14.50;99.90;;;;;;4854947;29;20524;-78
2021/12/31 02:11:30;;;;;;;3.95;0.80;;;14.40;99.90;;;;;;4859119;29;20067;-78
2021/12/31 02:14:02;;;;;;;3.28;0.70;;;14.50;99.90;;;;;;4847159;29;20136;-78
2021/12/31 02:16:32;;;;;;;4.13;0.77;;;14.50;99.90;;;;;;4845717;29;20066;-78
2021/12/31 02:19:12;;;;;;;2.60;0.55;;;14.50;99.90;;;;;;4854636;29;20048;-79
2021/12/31 02:21:45;;;;;;;2.10;0.70;;;14.50;99.90;;;;;;4859337;29;20049;-78
2021/12/31 02:24:14;;;;;;;4.70;0.75;;;14.40;99.90;;;;;;4854012;29;20051;-78
2021/12/31 02:26:43;;;;;;;2.95;0.80;;;14.40;99.90;;;;;;4872913;29;20520;-78
2021/12/31 02:29:13;;;;;;;4.10;0.80;;;14.50;99.90;;;;;;4855372;29;20148;-79
2021/12/31 02:31:41;;;;;;;2.85;0.90;;;14.50;99.90;;;;;;4862098;29;20052;-79
2021/12/31 02:34:10;;;;;;;4.23;0.80;;;14.50;99.90;;;;;;4861917;29;20064;-79
2021/12/31 02:36:39;;;;;;;3.45;0.80;;;14.50;99.90;;;;;;4862357;29;20140;-78
2021/12/31 02:39:10;;;;;;;2.70;0.70;;;14.50;99.90;;;;;;4873230;29;20057;-79
2021/12/31 02:41:46;;;;;;;2.63;0.80;;;14.50;99.90;;;;;;4860647;29;20068;-79
2021/12/31 02:44:18;;;;;;;2.22;0.70;;;14.40;99.90;;;;;;4843894;29;20097;-79
2021/12/31 02:46:47;;;;;;;2.03;0.70;;;14.40;99.90;;;;;;4864177;29;20559;-79
2021/12/31 02:49:41;;;;;;;3.70;0.75;;;14.40;99.90;;;;;;4870850;29;20074;-78
2021/12/31 02:52:13;;;;;;;2.10;0.75;;;14.40;99.90;;;;;;4860684;29;20111;-79
2021/12/31 02:54:47;;;;;;;2.38;0.63;;;14.40;99.90;;;;;;4859649;29;20124;-79
2021/12/31 02:57:21;;;;;;;1.70;0.50;;;14.40;99.90;;;;;;4857012;29;20072;-78
2021/12/31 02:59:50;;;;;;;1.57;0.40;;;14.50;99.90;;;;;;4850426;29;20088;-79
2021/12/31 03:02:24;;;;;;;3.50;0.60;;;14.40;99.90;;;;;;4851420;29;20085;-78
2021/12/31 03:04:54;;;;;;;4.18;0.90;;;14.40;99.90;;;;;;4848212;29;20050;-78
2021/12/31 03:07:24;;;;;;;2.17;0.80;;;14.40;99.90;;;;;;4850201;29;20053;-78
2021/12/31 03:09:59;;;;;;;2.13;0.68;;;14.40;99.90;;;;;;4845784;29;20076;-78
2021/12/31 03:12:30;;;;;;;1.80;0.80;;;14.40;99.90;;;;;;4845794;29;20116;-78
2021/12/31 03:15:00;;;;;;;2.72;0.82;;;14.30;99.90;;;;;;4856725;29;20057;-78
2021/12/31 03:17:30;;;;;;;3.38;0.90;;;14.30;99.90;;;;;;4855627;29;20061;-78
2021/12/31 03:20:10;;;;;;;1.67;0.55;;;14.30;99.90;;;;;;4854722;29;20155;-78
2021/12/31 03:22:39;;;;;;;3.15;0.65;;;14.30;99.90;;;;;;4856095;29;20065;-78
2021/12/31 03:25:11;;;;;;;3.23;0.50;;;14.30;99.90;;;;;;4844328;29;20135;-78
2021/12/31 03:27:40;;;;;;;2.88;0.68;;;14.30;99.90;;;;;;4853271;29;20049;-78
2021/12/31 03:30:10;;;;;;;4.97;0.45;;;14.30;99.90;;;;;;4846897;29;20087;-78
2021/12/31 03:32:41;;;;;;;1.92;0.43;;;14.20;99.90;;;;;;4850721;29;20052;-77
2021/12/31 03:35:12;;;;;;;2.95;0.50;;;14.20;99.90;;;;;;4847710;29;20053;-78
2021/12/31 03:37:40;;;;;;;1.77;0.40;;;14.20;99.90;;;;;;4848316;29;20071;-78
2021/12/31 03:40:12;;;;;;;2.25;0.65;;;14.20;99.90;;;;;;4848341;29;20128;-78
2021/12/31 03:42:42;;;;;;;2.42;0.75;;;14.20;99.90;;;;;;4850513;29;20053;-79
2021/12/31 03:45:12;;;;;;;2.08;0.65;;;14.10;99.90;;;;;;4852054;29;20413;-78
2021/12/31 03:47:41;;;;;;;3.33;0.85;;;14.10;99.90;;;;;;4856271;29;20432;-78
2021/12/31 03:50:10;;;;;;;1.73;0.50;;;14.20;99.90;;;;;;4848420;29;20052;-78
2021/12/31 03:52:40;;;;;;;1.90;0.63;;;14.10;99.90;;;;;;4858613;29;20057;-78
2021/12/31 03:55:16;;;;;;;2.47;0.60;;;14.10;99.90;;;;;;4857986;29;20147;-79
2021/12/31 04:00:44;;;;;;;3.13;0.70;;;14.10;99.90;;;;;;4867364;29;20068;-79
2021/12/31 04:03:18;;;;;;;2.67;0.50;;;14.00;99.90;;;;;;4855529;29;20665;-78
2021/12/31 04:05:47;;;;;;;2.58;0.43;;;14.10;99.90;;;;;;4834493;29;20481;-79
2021/12/31 04:08:16;;;;;;;2.35;0.57;;;14.00;99.90;;;;;;4858481;29;20144;-78
2021/12/31 04:10:49;;;;;;;5.00;0.50;;;14.00;99.90;;;;;;4851526;29;20053;-78
2021/12/31 04:13:43;;;;;;;2.85;0.52;;;14.00;99.90;;;;;;4850509;29;20061;-78
2021/12/31 04:16:12;;;;;;;2.37;0.63;;;14.00;99.90;;;;;;4846984;29;20054;-78
2021/12/31 04:18:41;;;;;;;1.80;0.50;;;13.90;99.90;;;;;;4842191;29;20082;-79
2021/12/31 04:21:09;;;;;;;1.92;0.55;;;13.90;99.90;;;;;;4851700;29;20059;-78
2021/12/31 04:23:49;;;;;;;2.10;0.47;;;13.90;99.90;;;;;;4852118;29;20080;-78
2021/12/31 04:26:20;;;;;;;2.85;0.70;;;13.90;99.90;;;;;;4855995;29;20054;-79
2021/12/31 04:28:50;;;;;;;1.50;0.40;;;13.90;99.90;;;;;;4849303;29;20073;-78
2021/12/31 04:31:18;;;;;;;2.28;0.70;;;13.90;99.90;;;;;;4834103;29;20489;-79
2021/12/31 04:34:11;;;;;;;1.80;0.55;;;13.90;99.90;;;;;;4852020;29;20528;-78
2021/12/31 04:36:39;;;;;;;2.60;0.60;;;13.90;99.90;;;;;;4849846;29;20049;-78
2021/12/31 04:39:08;;;;;;;3.17;0.85;;;13.90;99.90;;;;;;4853573;29;20062;-78
2021/12/31 04:42:03;;;;;;;2.60;0.50;;;14.00;99.90;;;;;;4847152;29;20046;-78
2021/12/31 04:44:32;;;;;;;2.45;0.70;;;14.00;99.90;;;;;;4855039;29;20059;-78
2021/12/31 04:47:05;;;;;;;1.88;0.50;;;14.00;99.90;;;;;;4853027;29;20129;-79
2021/12/31 04:49:34;;;;;;;2.47;0.80;;;14.00;99.90;;;;;;4852516;29;20519;-79
2021/12/31 04:52:05;;;;;;;2.47;0.75;;;13.90;99.90;;;;;;4854159;29;20077;-78
2021/12/31 04:54:34;;;;;;;2.50;0.90;;;13.90;99.90;;;;;;4843668;29;20090;-79
2021/12/31 04:57:04;;;;;;;1.95;0.57;;;13.90;99.90;;;;;;4855614;29;20685;-78
2021/12/31 04:59:33;;;;;;;1.58;0.50;;;14.00;99.90;;;;;;4854014;29;20061;-79
2021/12/31 05:02:01;;;;;;;2.08;0.60;;;14.00;99.90;;;;;;4844757;29;20070;-77
2021/12/31 05:04:30;;;;;;;1.85;0.50;;;14.00;99.90;;;;;;4849770;29;20084;-78
2021/12/31 05:06:58;;;;;;;2.47;0.60;;;14.00;99.90;;;;;;4864190;29;20117;-78
2021/12/31 05:09:27;;;;;;;2.28;0.50;;;14.00;99.90;;;;;;4854629;29;20045;-78
2021/12/31 05:11:55;;;;;;;2.13;0.68;;;14.00;99.90;;;;;;4859733;29;20059;-78
2021/12/31 05:14:25;;;;;;;4.82;0.70;;;14.00;99.90;;;;;;4862203;29;20057;-78
2021/12/31 05:16:54;;;;;;;5.82;0.93;;;14.00;99.90;;;;;;4862214;29;20505;-78
2021/12/31 05:19:24;;;;;;;2.70;0.73;;;14.00;99.90;;;;;;4867441;29;20116;-79
2021/12/31 05:21:53;;;;;;;2.15;0.65;;;14.00;99.90;;;;;;4870190;29;20077;-78
2021/12/31 05:24:22;;;;;;;2.67;0.68;;;14.00;99.90;;;;;;4873580;29;20057;-79
2021/12/31 05:26:52;;;;;;;1.85;0.65;;;14.00;99.90;;;;;;4873243;29;20049;-79
2021/12/31 05:29:21;;;;;;;1.98;0.60;;;14.10;99.90;;;;;;4874118;29;20057;-78
2021/12/31 05:31:50;;;;;;;1.97;0.47;;;14.10;99.90;;;;;;4868940;29;20067;-78
2021/12/31 05:34:19;;;;;;;3.13;0.70;;;14.10;99.90;;;;;;4859913;29;20140;-77
2021/12/31 05:36:48;;;;;;;2.83;0.60;;;14.10;99.90;;;;;;4864519;29;20057;-78
2021/12/31 05:39:17;;;;;;;2.13;0.63;;;14.10;99.90;;;;;;4859179;29;20064;-78
2021/12/31 05:41:49;;;;;;;5.30;0.60;;;14.10;99.90;;;;;;4870241;29;20575;-79
2021/12/31 05:44:28;;;;;;;2.63;0.67;;;14.10;99.90;;;;;;4887991;29;20061;-80
2021/12/31 05:47:07;;;;;;;3.63;0.60;;;14.20;99.90;;;;;;4855473;29;20049;-79
2021/12/31 05:49:44;;;;;;;2.22;0.50;;;14.20;99.90;;;;;;4893247;29;20049;-79
2021/12/31 05:52:20;;;;;;;1.92;0.65;;;14.20;99.90;;;;;;4866596;29;20054;-80
2021/12/31 05:54:51;;;;;;;3.05;0.60;;;14.20;99.90;;;;;;4867906;29;20179;-79
2021/12/31 05:57:20;;;;;;;1.90;0.70;;;14.20;99.90;;;;;;4864316;29;20045;-79
2021/12/31 05:59:49;;;;;;;3.63;0.60;;;14.20;99.90;;;;;;4864902;29;20678;-79
2021/12/31 06:02:19;;;;;;;2.08;0.63;;;14.20;99.90;;;;;;4863090;29;20065;-79
2021/12/31 06:04:48;;;;;;;2.25;0.50;;;14.10;99.90;;;;;;4859064;29;20068;-79
2021/12/31 06:07:18;;;;;;;1.50;0.50;;;14.10;99.90;;;;;;4860377;29;20125;-79
2021/12/31 06:09:49;;;;;;;1.87;0.33;;;14.10;99.90;;;;;;4862266;29;20045;-79
2021/12/31 06:12:18;;;;;;;2.00;0.80;;;14.00;99.90;;;;;;4857270;29;20058;-79
2021/12/31 06:14:48;;;;;;;2.28;0.75;;;14.00;99.90;;;;;;4864445;29;20101;-80
2021/12/31 06:17:25;;;;;;;2.00;0.60;;;14.00;99.90;;;;;;4851687;29;20060;-79
2021/12/31 06:19:57;;;;;;;2.15;0.60;;;14.00;99.90;;;;;;4859291;29;20053;-79
2021/12/31 06:22:33;;;;;;;3.47;0.50;;;14.00;99.90;;;;;;4864482;29;20386;-80
2021/12/31 06:25:05;;;;;;;3.05;0.63;;;14.00;99.90;;;;;;4864624;29;20061;-79
2021/12/31 06:27:41;;;;;;;2.58;0.50;;;14.00;99.90;;;;;;4887648;29;20491;-80
2021/12/31 06:30:20;;;;;;;2.40;0.60;;;14.00;99.90;;;;;;4870487;29;20069;-79
2021/12/31 06:32:50;;;;;;;2.75;0.63;;;14.00;99.90;;;;;;4892136;29;20073;-79
2021/12/31 06:35:27;;;;;;;2.17;0.60;;;14.00;99.90;;;;;;4887280;29;20140;-79
2021/12/31 06:38:03;;;;;;;2.05;0.55;;;14.00;99.90;;;;;;4872128;29;20073;-79
2021/12/31 06:40:36;;;;;;;1.95;0.68;;;13.90;99.90;;;;;;4870519;29;20060;-79
2021/12/31 06:43:08;;;;;;;2.03;0.55;;;13.90;99.90;;;;;;4867609;29;20053;-79
2021/12/31 06:49:04;;;;;;;2.40;0.70;;;13.80;99.90;;;;;;4869509;29;20057;-80
2021/12/31 06:51:36;;;;;;;2.60;0.80;;;13.70;99.90;;;;;;4873245;29;20049;-80
2021/12/31 06:54:07;;;;;;;4.75;0.85;;;13.70;99.90;;;;;;4850596;29;20095;-79
2021/12/31 06:56:36;;;;;;;2.30;0.57;;;13.70;99.90;;;;;;4865136;29;20054;-79
2021/12/31 06:59:05;;;;;;;2.88;0.85;;;13.70;99.90;;;;;;4851100;29;20416;-79
2021/12/31 07:01:35;;;;;;;2.57;0.60;;;13.70;99.90;;;;;;4879940;29;20076;-79
2021/12/31 07:04:06;;;;;;;4.43;0.60;;;13.70;99.90;;;;;;4887428;23;20112;-95
2021/12/31 07:06:37;;;;;;;3.47;0.70;;;13.70;99.90;;;;;;4874652;29;20109;-94
2021/12/31 07:09:06;;;;;;;3.50;0.70;;;13.80;99.90;;;;;;4857023;29;20054;-95
2021/12/31 07:11:35;;;;;;;3.03;0.98;;;13.70;99.90;;;;;;4857521;29;20052;-93
2021/12/31 07:14:07;;;;;;;2.80;0.83;;;13.70;99.90;;;;;;4865329;29;20048;-94
2021/12/31 07:16:36;;;;;;;2.28;0.77;;;13.80;99.90;;;;;;4860613;29;20059;-95
2021/12/31 07:19:04;;;;;;;3.17;0.93;;;13.70;99.90;;;;;;4860975;29;20064;-93
2021/12/31 07:21:34;;;;;;;3.47;1.00;;;13.80;99.90;;;;;;4872400;29;20061;-94
2021/12/31 07:24:04;;;;;;;4.70;1.20;;;13.70;99.90;;;;;;4862155;29;20445;-93
2021/12/31 07:26:34;;;;;;;2.47;0.80;;;13.80;99.90;;;;;;4864485;29;20057;-92
2021/12/31 07:29:04;;;;;;;3.50;0.82;;;13.80;99.90;;;;;;4861205;29;20460;-93
2021/12/31 07:31:33;;;;;;;1.88;0.85;;;13.80;99.90;;;;;;4862808;29;20092;-95
2021/12/31 07:34:03;;;;;;;3.30;0.70;;;13.80;99.90;;;;;;4859978;29;20057;-95
2021/12/31 07:36:31;;;;;;;2.97;0.75;;;13.80;99.90;;;;;;4865221;29;20073;-93
2021/12/31 07:39:03;;;;;;;4.27;0.80;;;13.80;99.90;;;;;;4876862;29;20160;-94
2021/12/31 07:41:34;;;;;;;2.45;0.95;;;13.80;99.90;;;;;;4859857;29;20045;-94
2021/12/31 07:44:34;;;;;;;2.67;0.88;;;13.80;99.90;;;;;;4864710;29;20147;-95
2021/12/31 07:47:05;;;;;;;2.70;0.75;;;13.80;99.90;;;;;;4863428;29;20045;-95
2021/12/31 07:49:34;;;;;;;2.78;1.05;;;13.80;99.90;;;;;;4863197;29;20055;-94
2021/12/31 07:52:04;;;;;;;2.83;0.80;;;13.80;99.90;;;;;;4874914;29;20093;-96
2021/12/31 07:54:34;;;;;;;4.82;0.63;;;13.80;99.90;;;;;;4866270;29;20049;-96
2021/12/31 07:57:07;;;;;;;2.63;1.00;;;13.90;99.90;;;;;;4883350;29;20063;-96
2021/12/31 07:59:38;;;;;;;2.88;0.60;;;13.90;99.90;;;;;;4872985;29;20354;-96
2021/12/31 08:02:08;;;;;;;3.38;0.70;;;13.90;99.90;;;;;;4862184;29;20049;-81
2021/12/31 08:04:37;;;;;;;3.67;0.73;;;13.90;99.90;;;;;;4867360;29;20140;-79
2021/12/31 08:07:30;;;;;;;3.08;1.00;;;13.90;99.90;;;;;;4885895;29;20063;-82
2021/12/31 08:09:59;;;;;;;6.10;0.82;;;14.00;99.90;;;;;;4877897;29;20049;-80
2021/12/31 08:12:49;;;;;;;2.85;0.80;;;14.00;99.90;;;;;;4858325;29;20492;-82
2021/12/31 08:15:18;;;;;;;2.20;0.80;;;14.00;99.90;;;;;;4860268;29;20053;-81
2021/12/31 08:17:46;;;;;;;2.90;0.63;;;14.00;99.90;;;;;;4860930;29;20515;-82
2021/12/31 08:20:14;;;;;;;4.22;0.65;;;14.10;99.90;;;;;;4860054;29;20057;-81
2021/12/31 08:22:44;;;;;;;2.00;0.52;;;14.10;99.90;;;;;;4860975;29;20153;-84
2021/12/31 08:25:13;;;;;;;6.15;0.70;;;14.20;99.90;;;;;;4860859;29;20148;-82
2021/12/31 08:27:42;;;;;;;1.83;0.60;;;14.20;99.90;;;;;;4846317;29;20056;-81
2021/12/31 08:30:12;;;;;;;3.13;0.50;;;14.20;99.90;;;;;;4863898;29;20061;-84
2021/12/31 08:32:44;;;;;;;2.53;0.63;;;14.20;99.90;;;;;;4851953;29;20049;-83
2021/12/31 08:35:13;;;;;;;4.00;0.80;;;14.30;99.90;;;;;;4866042;29;20527;-82
2021/12/31 08:37:41;;;;;;;2.38;0.75;;;14.30;99.90;;;;;;4860187;29;20063;-83
2021/12/31 08:40:11;;;;;;;2.15;0.80;;;14.30;99.90;;;;;;4868796;29;20143;-81
2021/12/31 08:42:40;;;;;;;1.70;0.47;;;14.30;99.90;;;;;;4868019;29;20056;-81
2021/12/31 08:45:11;;;;;;;2.40;0.70;;;14.30;99.90;;;;;;4872908;29;20160;-82
2021/12/31 08:47:40;;;;;;;2.38;0.70;;;14.20;99.90;;;;;;4869544;29;20171;-83
2021/12/31 08:50:09;;;;;;;3.97;0.82;;;14.30;99.90;;;;;;4867987;29;20136;-82
2021/12/31 08:52:39;;;;;;;3.25;0.70;;;14.30;99.90;;;;;;4849741;29;20057;-81
2021/12/31 08:55:09;;;;;;;2.50;0.70;;;14.30;99.90;;;;;;4873955;29;20084;-82
2021/12/31 08:57:37;;;;;;;3.60;0.93;;;14.30;99.90;;;;;;4852752;29;20076;-82
2021/12/31 09:00:12;;;;;;;2.72;0.65;;;14.30;99.90;;;;;;4868678;29;20060;-81
2021/12/31 09:02:42;;;;;;;2.60;0.70;;;14.40;99.90;;;;;;4869848;29;20188;-81
2021/12/31 09:05:36;;;;;;;2.80;0.70;;;14.40;99.90;;;;;;4869388;29;20136;-82
2021/12/31 09:08:05;;;;;;;3.07;1.07;;;14.50;99.90;;;;;;4880430;29;20053;-83
2021/12/31 09:10:34;;;;;;;3.78;0.90;;;14.40;99.90;;;;;;4867372;29;20053;-84
2021/12/31 09:13:02;;;;;;;2.50;0.80;;;14.50;99.90;;;;;;4868296;29;20057;-82
2021/12/31 09:15:33;;;;;;;2.08;0.70;;;14.50;99.90;;;;;;4867937;29;20045;-81
2021/12/31 09:18:06;;;;;;;2.33;0.65;;;14.60;99.90;;;;;;4849487;29;20049;-80
2021/12/31 09:20:36;;;;;;;2.30;0.60;;;14.60;99.90;;;;;;4866063;29;20316;-82
2021/12/31 09:23:10;;;;;;;2.70;0.63;;;14.70;99.90;;;;;;4870741;29;20132;-80
2021/12/31 09:25:39;;;;;;;4.45;0.80;;;14.60;99.90;;;;;;4867197;29;20065;-80
2021/12/31 09:28:32;;;;;;;3.97;0.93;;;14.70;99.90;;;;;;4876583;29;21048;-80
2021/12/31 09:31:10;;;;;;;2.90;0.82;;;14.70;99.90;;;;;;4872784;29;20500;-80
2021/12/31 09:33:39;;;;;;;2.37;0.87;;;14.70;99.90;;;;;;4873601;29;20064;-81
2021/12/31 09:36:08;;;;;;;2.58;0.68;;;14.70;99.90;;;;;;4858254;29;20052;-81
2021/12/31 09:38:36;;;;;;;2.40;0.70;;;14.60;99.90;;;;;;4870738;29;20053;-81
2021/12/31 09:41:07;;;;;;;2.42;0.70;;;14.60;99.90;;;;;;4874197;29;20049;-80
2021/12/31 09:43:37;;;;;;;2.03;0.65;;;14.60;99.90;;;;;;4865564;29;20300;-80
2021/12/31 09:46:15;;;;;;;2.63;0.80;;;14.60;99.90;;;;;;4869452;29;20073;-79
2021/12/31 09:48:44;;;;;;;2.70;0.68;;;14.60;99.90;;;;;;4855351;29;20049;-79
2021/12/31 09:51:12;;;;;;;2.42;0.85;;;14.50;99.90;;;;;;4867741;29;20071;-81
2021/12/31 09:53:41;;;;;;;4.38;1.08;;;14.50;99.90;;;;;;4867039;29;20389;-80
2021/12/31 09:56:10;;;;;;;2.33;0.80;;;14.60;99.90;;;;;;4867778;29;20496;-80
2021/12/31 09:59:03;;;;;;;2.37;0.60;;;14.60;99.90;;;;;;4865923;29;20056;-81
2021/12/31 10:01:34;;;;;;;1.90;0.50;;;14.70;99.90;;;;;;4870521;29;20057;-81
2021/12/31 10:04:04;;;;;;;2.28;0.77;;;14.70;99.90;;;;;;4873082;29;20061;-79
2021/12/31 10:06:36;;;;;;;2.28;0.90;;;14.60;99.90;;;;;;4865940;29;20567;-81
2021/12/31 10:09:05;;;;;;;2.60;0.60;;;14.70;99.90;;;;;;4868937;29;20176;-80
2021/12/31 10:11:34;;;;;;;2.27;0.77;;;14.70;99.90;;;;;;4869510;29;20057;-81
2021/12/31 10:14:05;;;;;;;2.72;0.93;;;14.70;99.90;;;;;;4856830;29;20097;-81
2021/12/31 10:16:39;;;;;;;3.97;0.93;;;14.70;99.90;;;;;;4886981;29;20061;-80
2021/12/31 10:19:10;;;;;;;5.80;1.00;;;14.70;99.90;;;;;;4867542;29;20109;-81
2021/12/31 10:21:41;;;;;;;2.47;0.80;;;14.70;99.90;;;;;;4852567;29;20049;-81
2021/12/31 10:24:25;;;;;;;4.00;1.10;;;14.80;99.90;;;;;;4868987;29;20071;-80
2021/12/31 10:26:56;;;;;;;2.50;0.73;;;14.80;99.90;;;;;;4854841;29;20045;-80
2021/12/31 10:29:25;;;;;;;4.28;1.10;;;14.80;99.90;;;;;;4852186;29;20538;-81
2021/12/31 10:34:48;;;;;;;2.90;0.70;;;14.80;99.90;;;;;;4875413;29;20583;-81
2021/12/31 10:37:20;;;;;;;1.77;0.50;;;14.90;99.90;;;;;;4865486;29;20092;-81
2021/12/31 10:39:56;;;;;;;3.30;0.88;;;14.90;99.90;;;;;;4880065;29;20409;-80
2021/12/31 10:42:29;;;;;;;2.25;0.80;;;14.90;99.90;;;;;;4863686;29;20069;-80
2021/12/31 10:44:58;;;;;;;2.20;0.70;;;14.90;99.90;;;;;;4866557;29;20109;-80
2021/12/31 10:47:33;;;;;;;3.17;0.88;;;14.90;99.90;;;;;;4868989;29;20140;-80
2021/12/31 10:50:14;;;;;;;2.33;0.53;;;15.00;99.90;;;;;;4864182;29;20734;-80
2021/12/31 10:52:54;;;;;;;3.47;0.90;;;15.10;99.90;;;;;;4867743;29;20041;-80
2021/12/31 10:55:26;;;;;;;2.55;0.60;;;15.10;99.90;;;;;;4866943;29;20061;-80
2021/12/31 10:57:59;;;;;;;2.42;0.50;;;15.10;99.90;;;;;;4869455;29;20515;-80
2021/12/31 11:00:31;;;;;;;2.45;0.50;;;15.10;99.90;;;;;;4861205;29;20057;-80
2021/12/31 11:03:02;;;;;;;1.80;0.50;;;15.10;99.90;;;;;;4878556;29;20515;-80
2021/12/31 11:05:34;;;;;;;3.05;0.50;;;15.10;99.90;;;;;;4861100;29;21042;-79
2021/12/31 11:08:05;;;;;;;2.47;0.52;;;15.10;99.90;;;;;;4883174;29;20080;-81
2021/12/31 11:10:40;;;;;;;6.05;0.70;;;15.20;99.90;;;;;;4861812;29;20065;-80
2021/12/31 11:13:12;;;;;;;1.75;0.40;;;15.20;99.90;;;;;;4864298;29;20065;-80
2021/12/31 11:15:43;;;;;;;3.30;0.90;;;15.20;99.90;;;;;;4869543;29;20076;-80
2021/12/31 11:18:18;;;;;;;4.05;0.70;;;15.30;99.90;;;;;;4869817;29;20057;-80
2021/12/31 11:20:49;;;;;;;2.13;0.95;;;15.30;99.90;;;;;;4870504;29;20053;-80
2021/12/31 11:23:23;;;;;;;2.38;0.55;;;15.40;99.90;;;;;;4869299;29;20374;-80
2021/12/31 11:25:54;;;;;;;2.97;0.80;;;15.40;99.90;;;;;;4870647;29;20057;-81
2021/12/31 11:28:28;;;;;;;3.10;0.40;;;15.40;99.90;;;;;;4871313;29;20382;-80
2021/12/31 11:30:57;;;;;;;2.38;0.60;;;15.30;99.90;;;;;;4869652;29;20064;-81
2021/12/31 11:33:30;;;;;;;1.80;0.50;;;15.30;99.90;;;;;;4868640;29;20055;-80
2021/12/31 11:36:02;;;;;;;3.13;0.60;;;15.20;99.90;;;;;;4849877;29;20383;-78
2021/12/31 11:38:50;;;;;;;2.58;0.50;;;15.30;99.90;;;;;;4866547;29;20148;-77
2021/12/31 11:41:37;;;;;;;2.67;0.40;;;15.20;99.90;;;;;;4862067;29;20053;-80
2021/12/31 11:44:30;;;;;;;1.85;0.50;;;15.30;99.90;;;;;;4867453;29;20053;-80
2021/12/31 11:47:14;;;;;;;1.92;0.50;;;15.30;99.90;;;;;;4860374;29;20054;-80
2021/12/31 11:49:46;;;;;;;2.30;0.50;;;15.40;99.90;;;;;;4881907;29;20445;-80
2021/12/31 11:52:20;;;;;;;3.00;0.90;;;15.40;99.90;;;;;;4846537;29;20085;-80
2021/12/31 11:55:17;;;;;;;5.00;0.50;;;15.40;99.90;;;;;;4863366;29;20048;-78
2021/12/31 11:57:45;;;;;;;2.35;0.60;;;15.40;99.90;;;;;;4865296;29;20412;-79
2021/12/31 12:00:39;;;;;;;2.95;0.43;;;15.50;99.90;;;;;;4868891;29;20073;-79
2021/12/31 12:03:29;;;;;;;2.50;0.57;;;15.50;99.90;;;;;;4870258;29;20110;-78
2021/12/31 12:06:01;;;;;;;3.00;0.70;;;15.50;99.90;;;;;;4863009;29;20093;-79
2021/12/31 12:08:57;;;;;;;2.13;0.33;;;15.50;99.90;;;;;;4870859;29;20053;-78
2021/12/31 12:12:00;;;;;;;2.00;0.52;;;15.60;99.90;;;;;;4866053;29;20064;-77
2021/12/31 12:14:30;;;;;;;1.60;0.50;;;15.60;99.90;;;;;;4856829;29;20080;-78
2021/12/31 12:17:00;;;;;;;3.22;0.70;;;15.70;99.90;;;;;;4889949;29;20206;-78
2021/12/31 12:20:11;;;;;;;2.00;0.60;;;15.80;99.90;;;;;;4873367;29;20149;-78
2021/12/31 12:22:50;;;;;;;2.10;0.60;;;15.80;99.90;;;;;;4829909;29;20053;-79
2021/12/31 12:25:20;;;;;;;2.60;0.80;;;15.80;99.90;;;;;;4870408;29;20049;-79
2021/12/31 12:27:51;;;;;;;2.78;0.70;;;15.80;99.90;;;;;;4886138;29;20053;-80
2021/12/31 12:30:21;;;;;;;4.07;0.70;;;15.90;99.90;;;;;;4863776;29;20060;-80
2021/12/31 12:33:06;;;;;;;4.82;0.60;;;15.90;99.90;;;;;;4864679;29;20080;-79
2021/12/31 12:35:37;;;;;;;2.43;0.47;;;15.90;99.90;;;;;;4855106;29;20077;-78
2021/12/31 12:38:11;;;;;;;3.55;1.40;;;15.90;99.90;;;;;;4852174;29;20079;-80
2021/12/31 12:40:40;;;;;;;2.50;0.90;;;15.90;99.90;;;;;;4865357;29;20507;-79
2021/12/31 12:43:14;;;;;;;3.15;0.73;;;15.90;99.90;;;;;;4865816;29;20083;-79
2021/12/31 12:45:45;;;;;;;2.30;0.70;;;16.00;99.90;;;;;;4856263;29;20267;-80
2021/12/31 12:48:14;;;;;;;2.70;0.60;;;16.00;99.90;;;;;;4868410;29;20060;-79
2021/12/31 12:50:49;;;;;;;2.40;0.90;;;15.90;99.90;;;;;;4872261;29;20049;-81
2021/12/31 12:53:27;;;;;;;2.65;0.93;;;16.00;99.90;;;;;;4869754;29;20056;-79
2021/12/31 12:56:06;;;;;;;2.10;0.65;;;16.00;99.90;;;;;;4856520;29;20056;-79
2021/12/31 12:58:37;;;;;;;1.67;0.40;;;16.00;99.90;;;;;;4870990;29;20049;-78
2021/12/31 13:01:08;;;;;;;1.67;0.50;;;16.10;99.90;;;;;;4859716;29;20071;-80
2021/12/31 13:03:49;;;;;;;1.48;0.40;;;16.00;99.90;;;;;;4852896;29;20053;-79
2021/12/31 13:06:19;;;;;;;1.92;0.50;;;15.90;99.90;;;;;;4870849;29;20053;-79
2021/12/31 13:08:49;;;;;;;2.85;1.00;;;15.90;99.90;;;;;;4856279;29;20617;-81
2021/12/31 13:11:20;;;;;;;1.83;0.50;;;15.90;99.90;;;;;;4882226;29;20064;-80
2021/12/31 13:13:49;;;;;;;1.83;0.50;;;15.90;99.90;;;;;;4871089;29;20057;-81
2021/12/31 13:16:17;;;;;;;3.15;0.90;;;15.90;99.90;;;;;;4852489;29;20049;-81
2021/12/31 13:18:56;;;;;;;2.70;0.60;;;15.90;99.90;;;;;;4852482;29;20049;-81
2021/12/31 13:21:25;;;;;;;2.65;0.88;;;15.90;99.90;;;;;;4867833;29;20061;-85
2021/12/31 13:23:57;;;;;;;2.88;0.77;;;15.90;99.90;;;;;;4854260;29;20076;-83
2021/12/31 13:26:28;;;;;;;2.33;0.73;;;15.80;99.90;;;;;;4870427;29;20801;-82
2021/12/31 13:28:58;;;;;;;1.83;0.57;;;15.80;99.90;;;;;;4870322;29;20053;-81